首页
METAR-TAF:

METAR-TAF

机场 :

Cherry Point, 北卡罗来纳州, 美国

纬度: 34-53-52N, 经度: 076-52-51W, 海拔: 8米

当前天气观测

该预报发布于48分钟前的22:54 UTC
风速6节,风向西
温度 16°C
湿度 48%
气压 1010 hPa
能見度: 16.1公里
天空无云

METAR: KNKT 172254Z 28006KT 10SM CLR 16/05 A2982 RMK AO2 SLP094 T01560050 $

时间: 19:42 (23:42 UTC)

预报

预报有效从17日的 23点(UTC)到 18日的 21点(UTC)
风速5节,风向西
能见度10公里或以上
天空无云
从 18日的 1000点(UTC)
风速6节,风向北转西北
能見度: 2300
天空无云

TAF: KNKT 1723/1821 28005KT 9999 SKC QNH2982INS FM181000 33006KT 9999 SKC QNH2997INS T08/1812Z T16/1821Z AMD 2300

超过4000个机场的气象观测和天气预报(METAR&TAF报告)。

可查询的气象台以黄色和红色小点在地图上表示。

将鼠标移到小点上方,可查看气象台名称。

然后点击查看天气观测和预报。

如需切换地图:点击带黑十字的绿色按钮放大地图;点击带横线的绿色按钮缩小地图;或者点击绿色箭头查看邻近地区的地图。


METAR-TAF: